createdAt,value
2023-04-26T00:02:27.504Z,9.06
2023-04-26T00:05:02.508Z,10.31
2023-04-26T00:07:30.776Z,9.68
2023-04-26T00:09:58.494Z,8.93
2023-04-26T00:12:26.334Z,8.41
2023-04-26T00:14:54.152Z,8.02
2023-04-26T00:17:23.750Z,7.72
2023-04-26T00:19:52.078Z,7.48
2023-04-26T00:22:20.249Z,7.56
2023-04-26T00:24:48.063Z,9.21
2023-04-26T00:27:16.977Z,10.03
2023-04-26T00:29:44.728Z,9.22
2023-04-26T00:32:12.645Z,8.50
2023-04-26T00:34:40.502Z,7.98
2023-04-26T00:37:11.435Z,7.62
2023-04-26T00:39:39.269Z,7.33
2023-04-26T00:42:07.071Z,7.47
2023-04-26T00:44:35.034Z,9.17
2023-04-26T00:47:03.389Z,10.12
2023-04-26T00:49:31.273Z,9.32
2023-04-26T00:51:59.212Z,8.50
2023-04-26T00:54:27.034Z,7.92
2023-04-26T00:56:55.279Z,7.51
2023-04-26T00:59:23.637Z,7.19
2023-04-26T01:01:51.734Z,6.99
2023-04-26T01:04:20.074Z,8.12
2023-04-26T01:06:48.338Z,9.62
2023-04-26T01:09:18.215Z,9.12
2023-04-26T01:11:46.798Z,8.27
2023-04-26T01:14:15.735Z,7.67
2023-04-26T01:16:47.027Z,7.25
2023-04-26T01:19:15.419Z,6.94
2023-04-26T01:21:43.363Z,6.82
2023-04-26T01:24:13.242Z,8.18
2023-04-26T01:26:48.442Z,9.48
2023-04-26T01:29:21.661Z,8.79
2023-04-26T01:31:49.797Z,7.98
2023-04-26T01:34:17.733Z,7.44
2023-04-26T01:36:45.820Z,7.05
2023-04-26T01:39:13.629Z,6.79
2023-04-26T01:41:41.443Z,7.77
2023-04-26T01:44:09.367Z,9.48
2023-04-26T01:46:37.566Z,9.34
2023-04-26T01:49:05.619Z,8.39
2023-04-26T01:51:34.461Z,7.69
2023-04-26T01:54:02.683Z,7.22
2023-04-26T01:56:31.011Z,6.87
2023-04-26T01:58:59.286Z,6.79
2023-04-26T02:01:27.309Z,8.28
2023-04-26T02:03:55.183Z,9.46
2023-04-26T02:06:23.093Z,8.73
2023-04-26T02:08:51.331Z,7.90
2023-04-26T02:11:19.724Z,7.31
2023-04-26T02:13:47.646Z,6.88
2023-04-26T02:16:16.983Z,6.55
2023-04-26T02:18:45.065Z,7.16
2023-04-26T02:21:13.444Z,8.96
2023-04-26T02:23:41.341Z,9.13
2023-04-26T02:26:09.265Z,8.17
2023-04-26T02:28:37.523Z,7.42
2023-04-26T02:31:05.917Z,6.91
2023-04-26T02:33:34.280Z,6.51
2023-04-26T02:36:06.585Z,6.94
2023-04-26T02:38:36.609Z,8.77
2023-04-26T02:41:04.825Z,9.12
2023-04-26T02:43:32.652Z,8.15
2023-04-26T02:46:01.454Z,7.38
2023-04-26T02:48:29.420Z,6.86
2023-04-26T02:50:57.360Z,6.60
2023-04-26T02:53:25.296Z,7.81
2023-04-26T02:55:53.126Z,9.09
2023-04-26T02:58:21.491Z,8.43
2023-04-26T03:00:49.662Z,7.57
2023-04-26T03:03:18.066Z,6.97
2023-04-26T03:05:46.808Z,6.56
2023-04-26T03:08:14.679Z,7.28
2023-04-26T03:10:45.328Z,9.03
2023-04-26T03:13:13.407Z,9.08
2023-04-26T03:15:46.460Z,8.09
2023-04-26T03:18:14.221Z,7.34
2023-04-26T03:20:43.316Z,6.83
2023-04-26T03:23:11.160Z,6.45
2023-04-26T03:25:39.083Z,7.10
2023-04-26T03:28:07.000Z,8.88
2023-04-26T03:30:34.870Z,9.12
2023-04-26T03:33:02.772Z,8.11
2023-04-26T03:35:30.643Z,7.33
2023-04-26T03:37:58.763Z,6.80
2023-04-26T03:40:26.755Z,6.57
2023-04-26T03:42:54.574Z,7.85
2023-04-26T03:45:22.552Z,9.08
2023-04-26T03:47:50.477Z,8.39
2023-04-26T03:50:19.492Z,7.52
2023-04-26T03:52:47.305Z,6.93
2023-04-26T03:55:15.219Z,6.50
2023-04-26T03:57:43.063Z,6.75
2023-04-26T04:00:14.281Z,8.47
2023-04-26T04:02:43.423Z,9.38
2023-04-26T04:05:12.045Z,8.46
2023-04-26T04:07:40.124Z,7.59
2023-04-26T04:10:10.228Z,7.02
2023-04-26T04:12:38.031Z,6.63
2023-04-26T04:15:07.096Z,7.36
2023-04-26T04:17:37.617Z,9.18
2023-04-26T04:20:07.846Z,9.38
2023-04-26T04:22:36.231Z,8.50
2023-04-26T04:25:06.071Z,7.87
2023-04-26T04:27:33.952Z,7.48
2023-04-26T04:30:03.677Z,7.23
2023-04-26T04:32:33.101Z,7.04
2023-04-26T04:35:01.639Z,6.89
2023-04-26T04:37:29.510Z,7.10
2023-04-26T04:39:57.412Z,8.83
2023-04-26T04:42:27.309Z,9.85
2023-04-26T04:44:56.167Z,9.11
2023-04-26T04:47:24.405Z,8.35
2023-04-26T04:49:53.927Z,7.81
2023-04-26T04:52:22.000Z,7.43
2023-04-26T04:54:49.942Z,7.13
2023-04-26T04:57:18.927Z,7.00
2023-04-26T04:59:46.800Z,8.34
2023-04-26T05:02:14.749Z,9.70
2023-04-26T05:04:42.941Z,9.10
2023-04-26T05:07:10.988Z,8.26
2023-04-26T05:09:38.900Z,7.70
2023-04-26T05:12:07.175Z,7.30
2023-04-26T05:14:34.978Z,7.53
2023-04-26T05:17:02.820Z,9.28
2023-04-26T05:19:30.701Z,10.19
2023-04-26T05:21:59.254Z,9.36
2023-04-26T05:24:31.107Z,8.53
2023-04-26T05:27:00.158Z,7.94
2023-04-26T05:29:31.366Z,7.55
2023-04-26T05:31:59.338Z,8.10
2023-04-26T05:34:27.989Z,9.82
2023-04-26T05:36:55.943Z,10.13
2023-04-26T05:39:23.890Z,9.24
2023-04-26T05:41:52.115Z,8.53
2023-04-26T05:44:19.993Z,8.04
2023-04-26T05:46:47.874Z,7.75
2023-04-26T05:49:16.115Z,8.70
2023-04-26T05:51:43.946Z,10.18
2023-04-26T05:54:11.770Z,9.98
2023-04-26T05:56:39.578Z,9.16
2023-04-26T05:59:09.230Z,8.58
2023-04-26T06:01:37.086Z,8.19
2023-04-26T06:04:06.701Z,8.16
2023-04-26T06:06:34.982Z,9.56
2023-04-26T06:09:03.201Z,10.42
2023-04-26T06:11:31.330Z,9.82
2023-04-26T06:13:59.228Z,9.30
2023-04-26T06:16:27.047Z,8.98
2023-04-26T06:18:54.845Z,8.76
2023-04-26T06:21:22.611Z,8.60
2023-04-26T06:23:50.906Z,8.47
2023-04-26T06:26:19.464Z,8.38
2023-04-26T06:28:51.769Z,8.32
2023-04-26T06:31:23.017Z,8.30
2023-04-26T06:33:51.305Z,8.29
2023-04-26T06:36:19.336Z,8.32
2023-04-26T06:38:47.186Z,8.32
2023-04-26T06:41:15.018Z,8.34
2023-04-26T06:43:42.930Z,8.40
2023-04-26T06:46:10.945Z,8.51
2023-04-26T06:48:38.983Z,8.65
2023-04-26T06:51:09.156Z,8.88
2023-04-26T06:53:37.179Z,9.11
2023-04-26T06:56:05.408Z,9.25
2023-04-26T06:58:33.390Z,9.42
2023-04-26T07:01:01.389Z,9.68
2023-04-26T07:03:29.548Z,9.97
2023-04-26T07:05:57.963Z,10.15
2023-04-26T07:08:26.576Z,10.18
2023-04-26T07:10:56.509Z,10.15
2023-04-26T07:13:24.884Z,10.16
2023-04-26T07:15:52.840Z,10.13
2023-04-26T07:18:20.808Z,10.07
2023-04-26T07:20:48.620Z,10.02
2023-04-26T07:23:16.482Z,10.02
2023-04-26T07:25:44.310Z,10.07
2023-04-26T07:28:12.232Z,10.16
2023-04-26T07:30:40.650Z,10.29
2023-04-26T07:33:09.504Z,10.43
2023-04-26T07:35:37.451Z,10.60
2023-04-26T07:38:05.329Z,10.72
2023-04-26T07:40:33.247Z,10.70
2023-04-26T07:43:01.149Z,10.67
2023-04-26T07:45:29.222Z,10.65
2023-04-26T07:47:57.306Z,10.74
2023-04-26T07:50:25.169Z,10.92
2023-04-26T07:52:53.196Z,11.13
2023-04-26T07:55:21.851Z,11.38
2023-04-26T07:57:49.699Z,11.63
2023-04-26T08:00:19.066Z,11.72
2023-04-26T08:02:47.267Z,11.71
2023-04-26T08:05:16.935Z,11.69
2023-04-26T08:07:45.218Z,11.65
2023-04-26T08:10:13.176Z,11.66
2023-04-26T08:12:41.326Z,11.76
2023-04-26T08:15:10.303Z,11.96
2023-04-26T08:17:38.327Z,12.19
2023-04-26T08:20:09.705Z,12.33
2023-04-26T08:22:37.775Z,12.36
2023-04-26T08:25:06.593Z,12.31
2023-04-26T08:27:34.631Z,12.15
2023-04-26T08:30:02.734Z,12.02
2023-04-26T08:32:30.791Z,12.03
2023-04-26T08:34:58.751Z,12.17
2023-04-26T08:37:28.103Z,12.39
2023-04-26T08:39:57.569Z,12.52
2023-04-26T08:42:28.914Z,12.50
2023-04-26T08:44:59.810Z,12.39
2023-04-26T08:47:58.659Z,12.34
2023-04-26T08:50:27.013Z,12.52
2023-04-26T08:52:54.958Z,12.80
2023-04-26T08:55:24.107Z,13.01
2023-04-26T08:57:52.125Z,13.09
2023-04-26T09:00:20.762Z,13.12
2023-04-26T09:02:53.576Z,13.21
2023-04-26T09:05:24.714Z,13.28
2023-04-26T09:07:57.716Z,13.25
2023-04-26T09:10:26.463Z,13.23
2023-04-26T09:12:55.652Z,13.24
2023-04-26T09:15:26.474Z,13.26
2023-04-26T09:17:54.683Z,13.23
2023-04-26T09:20:30.665Z,13.10
2023-04-26T09:23:08.004Z,12.90
2023-04-26T09:25:37.053Z,12.68
2023-04-26T09:28:20.023Z,12.49
2023-04-26T09:30:48.598Z,12.34
2023-04-26T09:33:16.891Z,12.27
2023-04-26T09:35:45.032Z,12.18
2023-04-26T09:38:18.142Z,12.06
2023-04-26T09:40:50.749Z,12.01
2023-04-26T09:43:22.982Z,12.15
2023-04-26T09:45:53.174Z,12.23
2023-04-26T09:48:26.879Z,12.21
2023-04-26T09:50:57.734Z,12.10
2023-04-26T09:53:29.794Z,11.97
2023-04-26T09:56:08.968Z,11.86
2023-04-26T09:58:40.101Z,11.76
2023-04-26T10:01:08.798Z,11.75
2023-04-26T10:03:37.246Z,11.90
2023-04-26T10:06:05.982Z,12.15
2023-04-26T10:08:34.529Z,12.34
2023-04-26T10:11:05.226Z,12.40
2023-04-26T10:13:33.300Z,12.44
2023-04-26T10:16:02.245Z,12.48
2023-04-26T10:18:31.915Z,12.58
2023-04-26T10:21:10.833Z,12.77
2023-04-26T10:23:39.492Z,13.00
2023-04-26T10:26:07.706Z,13.10
2023-04-26T10:28:44.701Z,13.17
2023-04-26T10:31:12.649Z,13.32
2023-04-26T10:33:40.625Z,13.49
2023-04-26T10:36:13.534Z,13.57
2023-04-26T10:39:21.930Z,13.57
2023-04-26T10:41:49.831Z,13.51
2023-04-26T10:44:41.789Z,13.41
2023-04-26T10:47:22.262Z,13.23
2023-04-26T10:49:50.620Z,13.07
2023-04-26T10:52:21.471Z,12.94
2023-04-26T10:54:57.774Z,12.86
2023-04-26T10:57:50.816Z,12.78
2023-04-26T11:00:25.803Z,12.67
2023-04-26T11:02:59.033Z,12.57
2023-04-26T11:06:00.780Z,12.52
2023-04-26T11:08:32.087Z,12.43
2023-04-26T11:11:09.127Z,12.34
2023-04-26T11:13:38.898Z,12.22
2023-04-26T11:16:12.083Z,12.09
2023-04-26T11:18:45.986Z,11.98
2023-04-26T11:21:18.238Z,12.01
2023-04-26T11:23:56.297Z,12.04
2023-04-26T11:26:33.074Z,12.05
2023-04-26T11:29:01.431Z,12.07
2023-04-26T11:31:30.788Z,12.08
2023-04-26T11:34:05.234Z,12.04
2023-04-26T11:36:38.271Z,11.99
2023-04-26T11:39:07.201Z,11.94
2023-04-26T11:41:35.705Z,11.90
2023-04-26T11:44:04.071Z,11.86
2023-04-26T11:46:32.525Z,11.80
2023-04-26T11:49:00.416Z,11.74
2023-04-26T11:51:30.660Z,11.70
2023-04-26T11:54:01.620Z,11.65
2023-04-26T11:56:29.340Z,11.62
2023-04-26T11:58:58.462Z,11.68
2023-04-26T12:01:28.207Z,11.82
2023-04-26T12:03:58.965Z,11.97
2023-04-26T12:06:33.010Z,12.09
2023-04-26T12:09:06.368Z,12.17
2023-04-26T12:11:34.209Z,12.19
2023-04-26T12:14:02.474Z,12.19
2023-04-26T12:16:30.609Z,12.19
2023-04-26T12:18:58.467Z,12.21
2023-04-26T12:21:28.845Z,12.23
2023-04-26T12:23:58.510Z,12.24
2023-04-26T12:26:47.480Z,12.23
2023-04-26T12:29:15.316Z,12.20
2023-04-26T12:31:43.395Z,12.14
2023-04-26T12:34:11.369Z,12.12
2023-04-26T12:36:44.365Z,12.16
2023-04-26T12:39:14.540Z,12.27
2023-04-26T12:41:43.379Z,12.43
2023-04-26T12:44:12.167Z,12.50
2023-04-26T12:46:40.363Z,12.52
2023-04-26T12:49:09.977Z,12.49
2023-04-26T12:51:37.876Z,12.45
2023-04-26T12:54:05.910Z,12.41
2023-04-26T12:56:34.166Z,12.38
2023-04-26T12:59:01.967Z,12.41
2023-04-26T13:01:29.912Z,12.48
2023-04-26T13:03:59.902Z,12.52
2023-04-26T13:06:28.975Z,12.54
2023-04-26T13:08:56.856Z,12.51
2023-04-26T13:11:24.683Z,12.47
2023-04-26T13:13:52.465Z,12.41
2023-04-26T13:16:20.636Z,12.35
2023-04-26T13:18:48.601Z,12.29
2023-04-26T13:21:16.678Z,12.22
2023-04-26T13:23:46.274Z,12.17
2023-04-26T13:26:15.054Z,12.12
2023-04-26T13:28:42.974Z,12.06
2023-04-26T13:31:11.823Z,12.02
2023-04-26T13:33:39.752Z,11.97
2023-04-26T13:36:07.843Z,11.94
2023-04-26T13:38:35.705Z,11.91
2023-04-26T13:41:03.652Z,11.95
2023-04-26T13:43:31.459Z,12.00
2023-04-26T13:45:59.763Z,12.03
2023-04-26T13:48:27.965Z,12.01
2023-04-26T13:50:56.367Z,11.99
2023-04-26T13:53:24.276Z,11.94
2023-04-26T13:55:52.064Z,11.88
2023-04-26T13:58:19.901Z,11.82
2023-04-26T14:00:47.707Z,11.75
2023-04-26T14:03:15.583Z,11.71
2023-04-26T14:05:43.443Z,11.67
2023-04-26T14:08:12.743Z,11.64
2023-04-26T14:10:40.840Z,11.62
2023-04-26T14:13:08.629Z,11.59
2023-04-26T14:15:37.134Z,11.55
2023-04-26T14:18:05.078Z,11.52
2023-04-26T14:20:32.877Z,11.48
2023-04-26T14:23:00.783Z,11.45
2023-04-26T14:25:28.563Z,11.43
2023-04-26T14:27:56.445Z,11.41
2023-04-26T14:30:26.007Z,11.40
2023-04-26T14:32:53.911Z,11.41
2023-04-26T14:35:21.804Z,11.43
2023-04-26T14:37:49.624Z,11.46
2023-04-26T14:40:17.621Z,11.50
2023-04-26T14:42:48.430Z,11.52
2023-04-26T14:45:16.326Z,11.54
2023-04-26T14:47:44.073Z,11.53
2023-04-26T14:50:13.934Z,11.50
2023-04-26T14:52:41.810Z,11.46
2023-04-26T14:55:09.885Z,11.41
2023-04-26T14:57:40.590Z,11.37
2023-04-26T15:00:09.380Z,11.33
2023-04-26T15:02:37.295Z,11.29
2023-04-26T15:05:06.233Z,11.22
2023-04-26T15:07:34.209Z,11.15
2023-04-26T15:10:02.199Z,11.10
2023-04-26T15:12:30.063Z,11.05
2023-04-26T15:14:58.144Z,10.99
2023-04-26T15:17:26.160Z,10.95
2023-04-26T15:19:54.079Z,10.92
2023-04-26T15:22:21.956Z,10.89
2023-04-26T15:24:51.145Z,10.88
2023-04-26T15:27:19.104Z,10.87
2023-04-26T15:29:46.985Z,10.87
2023-04-26T15:32:14.832Z,10.86
2023-04-26T15:34:43.685Z,10.87
2023-04-26T15:37:11.793Z,10.87
2023-04-26T15:39:39.782Z,10.87
2023-04-26T15:42:07.588Z,10.86
2023-04-26T15:44:35.720Z,10.84
2023-04-26T15:47:03.881Z,10.83
2023-04-26T15:49:31.721Z,10.83
2023-04-26T15:52:01.152Z,10.84
2023-04-26T15:54:29.034Z,10.85
2023-04-26T15:56:57.098Z,10.85
2023-04-26T15:59:24.915Z,10.86
2023-04-26T16:01:52.858Z,10.86
2023-04-26T16:04:21.745Z,10.87
2023-04-26T16:06:49.949Z,10.89
2023-04-26T16:09:25.153Z,10.91
2023-04-26T16:11:53.734Z,10.92
2023-04-26T16:14:22.053Z,10.92
2023-04-26T16:16:50.012Z,10.92
2023-04-26T16:19:17.883Z,10.91
2023-04-26T16:21:45.718Z,10.87
2023-04-26T16:24:13.592Z,10.83
2023-04-26T16:26:41.383Z,10.76
2023-04-26T16:29:09.319Z,10.69
2023-04-26T16:31:37.273Z,10.62
2023-04-26T16:34:05.101Z,10.54
2023-04-26T16:36:32.991Z,10.48
2023-04-26T16:39:00.956Z,10.42
2023-04-26T16:41:28.868Z,10.36
2023-04-26T16:43:56.660Z,10.31
2023-04-26T16:46:24.542Z,10.27
2023-04-26T16:48:52.387Z,10.22
2023-04-26T16:51:20.444Z,10.18
2023-04-26T16:53:48.373Z,10.14
2023-04-26T16:56:16.375Z,10.10
2023-04-26T16:58:44.120Z,10.07
2023-04-26T17:01:11.890Z,10.04
2023-04-26T17:03:39.812Z,10.01
2023-04-26T17:06:10.592Z,9.99
2023-04-26T17:08:38.462Z,9.98
2023-04-26T17:11:06.349Z,9.96
2023-04-26T17:13:34.221Z,9.96
2023-04-26T17:16:02.255Z,9.95
2023-04-26T17:18:30.394Z,9.95
2023-04-26T17:20:58.295Z,9.94
2023-04-26T17:23:26.049Z,9.94
2023-04-26T17:25:55.270Z,9.92
2023-04-26T17:28:23.393Z,9.89
2023-04-26T17:30:51.226Z,9.86
2023-04-26T17:33:19.588Z,9.82
2023-04-26T17:35:47.728Z,9.78
2023-04-26T17:38:15.936Z,9.73
2023-04-26T17:40:43.851Z,9.68
2023-04-26T17:43:12.299Z,9.63
2023-04-26T17:45:40.774Z,9.59
2023-04-26T17:48:13.429Z,9.54
2023-04-26T17:50:42.087Z,9.49
2023-04-26T17:53:10.203Z,9.45
2023-04-26T17:55:38.058Z,9.39
2023-04-26T17:58:06.518Z,9.35
2023-04-26T18:00:34.865Z,9.30
2023-04-26T18:03:05.183Z,9.25
2023-04-26T18:05:33.284Z,9.21
2023-04-26T18:08:01.143Z,9.16
2023-04-26T18:10:29.132Z,9.13
2023-04-26T18:12:57.176Z,9.08
2023-04-26T18:15:25.141Z,9.06
2023-04-26T18:17:53.790Z,9.02
2023-04-26T18:20:21.766Z,8.99
2023-04-26T18:22:52.632Z,8.95
2023-04-26T18:25:20.917Z,8.92
2023-04-26T18:27:48.843Z,8.88
2023-04-26T18:30:18.563Z,8.85
2023-04-26T18:32:46.475Z,8.80
2023-04-26T18:35:14.313Z,8.75
2023-04-26T18:37:42.205Z,8.71
2023-04-26T18:40:10.629Z,8.66
2023-04-26T18:42:38.943Z,8.60
2023-04-26T18:45:07.952Z,8.54
2023-04-26T18:47:35.764Z,8.48
2023-04-26T18:50:04.323Z,8.42
2023-04-26T18:52:32.157Z,8.35
2023-04-26T18:54:59.969Z,8.28
2023-04-26T18:57:28.493Z,8.22
2023-04-26T18:59:57.340Z,8.15
2023-04-26T19:02:25.924Z,8.08
2023-04-26T19:04:54.050Z,8.02
2023-04-26T19:07:22.075Z,7.95
2023-04-26T19:09:54.085Z,7.86
2023-04-26T19:12:22.465Z,7.79
2023-04-26T19:14:50.653Z,7.72
2023-04-26T19:17:18.602Z,7.65
2023-04-26T19:19:46.926Z,7.59
2023-04-26T19:22:14.791Z,7.53
2023-04-26T19:24:42.637Z,7.46
2023-04-26T19:27:11.402Z,7.40
2023-04-26T19:29:39.198Z,7.33
2023-04-26T19:32:07.088Z,7.27
2023-04-26T19:34:38.809Z,7.21
2023-04-26T19:37:07.195Z,7.13
2023-04-26T19:39:35.073Z,7.06
2023-04-26T19:42:03.307Z,7.00
2023-04-26T19:44:31.431Z,6.93
2023-04-26T19:46:59.344Z,6.87
2023-04-26T19:49:29.054Z,6.81
2023-04-26T19:51:57.145Z,6.76
2023-04-26T19:54:25.062Z,7.04
2023-04-26T19:56:52.862Z,8.70
2023-04-26T19:59:20.958Z,9.90
2023-04-26T20:01:49.944Z,9.39
2023-04-26T20:04:18.840Z,8.70
2023-04-26T20:06:46.750Z,8.22
2023-04-26T20:09:14.554Z,7.92
2023-04-26T20:11:42.345Z,7.69
2023-04-26T20:14:10.193Z,7.51
2023-04-26T20:16:38.108Z,7.36
2023-04-26T20:19:08.350Z,7.63
2023-04-26T20:21:36.369Z,9.28
2023-04-26T20:24:07.268Z,10.26
2023-04-26T20:26:35.085Z,9.59
2023-04-26T20:29:02.971Z,8.86
2023-04-26T20:31:30.871Z,8.35
2023-04-26T20:34:00.550Z,8.00
2023-04-26T20:36:28.824Z,7.73
2023-04-26T20:38:56.730Z,7.50
2023-04-26T20:41:24.611Z,7.31
2023-04-26T20:43:53.156Z,7.15
2023-04-26T20:46:21.125Z,7.49
2023-04-26T20:48:49.084Z,9.17
2023-04-26T20:51:16.821Z,10.17
2023-04-26T20:53:44.670Z,9.43
2023-04-26T20:56:12.469Z,8.67
2023-04-26T20:58:41.191Z,8.13
2023-04-26T21:01:09.942Z,7.75
2023-04-26T21:03:39.061Z,7.46
2023-04-26T21:06:07.158Z,7.22
2023-04-26T21:08:36.771Z,7.01
2023-04-26T21:11:05.445Z,6.81
2023-04-26T21:13:33.227Z,6.62
2023-04-26T21:16:02.307Z,6.82
2023-04-26T21:18:30.359Z,8.42
2023-04-26T21:20:58.213Z,9.38
2023-04-26T21:23:26.072Z,8.69
2023-04-26T21:25:53.857Z,7.96
2023-04-26T21:28:22.414Z,7.46
2023-04-26T21:30:50.435Z,7.11
2023-04-26T21:33:18.244Z,6.85
2023-04-26T21:35:46.425Z,6.63
2023-04-26T21:38:14.197Z,6.44
2023-04-26T21:40:41.970Z,6.27
2023-04-26T21:43:09.835Z,6.12
2023-04-26T21:45:37.683Z,5.98
2023-04-26T21:48:05.908Z,5.85
2023-04-26T21:50:33.883Z,5.73
2023-04-26T21:53:01.619Z,6.02
2023-04-26T21:55:29.439Z,7.69
2023-04-26T21:57:57.286Z,8.74
2023-04-26T22:00:27.128Z,8.09
2023-04-26T22:02:55.237Z,7.39
2023-04-26T22:05:25.857Z,6.93
2023-04-26T22:07:54.653Z,6.62
2023-04-26T22:10:22.399Z,6.38
2023-04-26T22:12:50.565Z,6.19
2023-04-26T22:15:18.588Z,6.02
2023-04-26T22:17:46.624Z,5.87
2023-04-26T22:20:14.601Z,6.12
2023-04-26T22:22:42.446Z,7.77
2023-04-26T22:25:10.553Z,8.90
2023-04-26T22:27:38.417Z,8.21
2023-04-26T22:30:23.013Z,7.48
2023-04-26T22:32:59.484Z,6.93
2023-04-26T22:35:28.175Z,6.58
2023-04-26T22:37:56.430Z,6.33
2023-04-26T22:40:24.441Z,6.11
2023-04-26T22:42:52.453Z,5.92
2023-04-26T22:45:20.532Z,5.76
2023-04-26T22:47:48.376Z,5.60
2023-04-26T22:50:16.297Z,5.46
2023-04-26T22:52:44.062Z,5.80
2023-04-26T22:55:11.936Z,7.60
2023-04-26T22:57:39.763Z,8.61
2023-04-26T23:00:10.222Z,7.89
2023-04-26T23:02:38.141Z,7.15
2023-04-26T23:05:09.727Z,6.65
2023-04-26T23:07:39.588Z,6.30
2023-04-26T23:10:08.285Z,6.04
2023-04-26T23:12:36.757Z,5.82
2023-04-26T23:15:06.185Z,5.63
2023-04-26T23:17:34.620Z,5.86
2023-04-26T23:20:11.618Z,7.50
2023-04-26T23:22:41.119Z,8.61
2023-04-26T23:25:09.995Z,7.88
2023-04-26T23:27:38.357Z,7.14
2023-04-26T23:30:07.282Z,6.65
2023-04-26T23:32:35.111Z,6.30
2023-04-26T23:35:02.967Z,6.03
2023-04-26T23:37:30.950Z,5.81
2023-04-26T23:39:58.764Z,5.62
2023-04-26T23:42:26.632Z,5.45
2023-04-26T23:44:54.458Z,5.78
2023-04-26T23:47:22.270Z,7.52
2023-04-26T23:49:50.062Z,8.59
2023-04-26T23:52:17.927Z,7.86
2023-04-26T23:54:45.902Z,7.09
2023-04-26T23:57:13.665Z,6.55
2023-04-26T23:59:41.435Z,6.18
